createdAt,value
2017-07-21T00:00:02.139Z,17.55
2017-07-21T00:01:03.375Z,17.62
2017-07-21T00:02:04.626Z,17.54
2017-07-21T00:03:05.849Z,17.59
2017-07-21T00:04:07.090Z,17.47
2017-07-21T00:05:08.341Z,17.43
2017-07-21T00:06:09.579Z,17.44
2017-07-21T00:07:10.837Z,17.43
2017-07-21T00:08:12.078Z,17.47
2017-07-21T00:09:13.318Z,17.4
2017-07-21T00:10:14.570Z,17.43
2017-07-21T00:11:15.903Z,17.33
2017-07-21T00:12:17.127Z,17.3
2017-07-21T00:13:18.424Z,17.41
2017-07-21T00:14:19.665Z,17.41
2017-07-21T00:15:20.915Z,17.29
2017-07-21T00:16:22.153Z,17.29
2017-07-21T00:17:23.403Z,17.3
2017-07-21T00:18:24.670Z,17.3
2017-07-21T00:19:25.918Z,17.2
2017-07-21T00:20:27.158Z,17.2
2017-07-21T00:21:28.395Z,17.26
2017-07-21T00:22:29.688Z,17.18
2017-07-21T00:23:30.953Z,17.13
2017-07-21T00:24:32.298Z,17.08
2017-07-21T00:25:33.555Z,17.07
2017-07-21T00:26:34.782Z,17.14
2017-07-21T00:27:36.054Z,17.06
2017-07-21T00:28:37.294Z,17.15
2017-07-21T00:29:38.597Z,17.03
2017-07-21T00:30:39.819Z,17.07
2017-07-21T00:31:41.066Z,17.06
2017-07-21T00:32:42.305Z,17.06
2017-07-21T00:33:43.552Z,17.06
2017-07-21T00:34:44.806Z,17.03
2017-07-21T00:35:46.067Z,16.99
2017-07-21T00:36:47.291Z,16.95
2017-07-21T00:37:48.663Z,16.95
2017-07-21T00:38:49.897Z,16.83
2017-07-21T00:39:51.137Z,16.85
2017-07-21T00:40:52.417Z,16.86
2017-07-21T00:41:53.780Z,16.86
2017-07-21T00:42:55.019Z,16.85
2017-07-21T00:43:56.278Z,16.83
2017-07-21T00:44:57.491Z,16.8
2017-07-21T00:45:58.732Z,16.85
2017-07-21T00:47:00.017Z,16.81
2017-07-21T00:48:01.258Z,16.8
2017-07-21T00:49:02.509Z,16.73
2017-07-21T00:50:03.780Z,16.65
2017-07-21T00:51:05.037Z,16.74
2017-07-21T00:52:06.291Z,16.71
2017-07-21T00:53:07.523Z,16.67
2017-07-21T00:54:08.793Z,16.62
2017-07-21T00:55:10.125Z,16.63
2017-07-21T00:56:11.364Z,16.6
2017-07-21T00:57:12.609Z,16.58
2017-07-21T00:58:13.860Z,16.63
2017-07-21T00:59:15.096Z,16.56
2017-07-21T01:00:16.327Z,16.5
2017-07-21T01:01:17.582Z,16.55
2017-07-21T01:02:18.827Z,16.55
2017-07-21T01:03:20.176Z,16.5
2017-07-21T01:04:21.405Z,16.5
2017-07-21T01:05:22.638Z,16.49
2017-07-21T01:06:23.887Z,16.42
2017-07-21T01:07:25.139Z,16.38
2017-07-21T01:08:26.462Z,16.48
2017-07-21T01:09:27.693Z,16.38
2017-07-21T01:10:28.929Z,16.4
2017-07-21T01:11:30.168Z,16.37
2017-07-21T01:12:31.436Z,16.37
2017-07-21T01:13:32.705Z,16.31
2017-07-21T01:14:34.033Z,16.4
2017-07-21T01:15:35.273Z,16.26
2017-07-21T01:16:36.511Z,16.27
2017-07-21T01:17:37.756Z,16.25
2017-07-21T01:18:38.990Z,16.23
2017-07-21T01:19:40.319Z,16.25
2017-07-21T01:20:41.561Z,16.26
2017-07-21T01:21:42.799Z,16.23
2017-07-21T01:22:44.047Z,16.14
2017-07-21T01:23:45.335Z,16.11
2017-07-21T01:24:46.577Z,16.11
2017-07-21T01:25:47.867Z,16.11
2017-07-21T01:26:49.165Z,16.11
2017-07-21T01:27:50.401Z,16.09
2017-07-21T01:28:51.648Z,16.14
2017-07-21T01:29:52.873Z,16.11
2017-07-21T01:30:54.170Z,16.07
2017-07-21T01:31:55.401Z,16.11
2017-07-21T01:32:56.682Z,16.09
2017-07-21T01:33:57.997Z,16.11
2017-07-21T01:34:59.256Z,16.14
2017-07-21T01:36:00.485Z,16.09
2017-07-21T01:37:01.724Z,16.07
2017-07-21T01:38:02.985Z,16.09
2017-07-21T01:39:04.296Z,16.03
2017-07-21T01:40:05.535Z,15.94
2017-07-21T01:41:06.770Z,15.93
2017-07-21T01:42:08.007Z,15.94
2017-07-21T01:43:09.250Z,15.96
2017-07-21T01:44:10.535Z,15.99
2017-07-21T01:45:11.776Z,16.03
2017-07-21T01:46:13.016Z,15.99
2017-07-21T01:47:14.314Z,15.99
2017-07-21T01:48:15.549Z,16.03
2017-07-21T01:49:16.785Z,15.94
2017-07-21T01:50:18.087Z,15.89
2017-07-21T01:51:19.323Z,15.94
2017-07-21T01:52:20.551Z,15.96
2017-07-21T01:53:21.900Z,15.97
2017-07-21T01:54:23.116Z,15.97
2017-07-21T01:55:24.352Z,15.92
2017-07-21T01:56:25.586Z,15.85
2017-07-21T01:57:26.839Z,15.93
2017-07-21T01:58:28.076Z,15.88
2017-07-21T01:59:29.318Z,15.92
2017-07-21T02:00:30.552Z,15.84
2017-07-21T02:01:31.799Z,15.85
2017-07-21T02:02:33.065Z,15.82
2017-07-21T02:03:34.371Z,15.81
2017-07-21T02:04:35.609Z,15.86
2017-07-21T02:05:36.853Z,15.75
2017-07-21T02:06:38.122Z,15.68
2017-07-21T02:07:39.395Z,15.86
2017-07-21T02:08:40.628Z,15.82
2017-07-21T02:09:41.869Z,15.84
2017-07-21T02:10:43.112Z,15.81
2017-07-21T02:11:44.466Z,15.76
2017-07-21T02:12:45.696Z,15.72
2017-07-21T02:13:46.963Z,15.85
2017-07-21T02:14:48.332Z,15.7
2017-07-21T02:15:49.567Z,15.72
2017-07-21T02:16:50.808Z,15.67
2017-07-21T02:17:52.173Z,15.72
2017-07-21T02:18:53.402Z,15.64
2017-07-21T02:19:54.645Z,15.66
2017-07-21T02:20:55.874Z,15.6
2017-07-21T02:21:57.112Z,15.67
2017-07-21T02:22:58.379Z,15.45
2017-07-21T02:23:59.630Z,15.51
2017-07-21T02:25:00.881Z,15.51
2017-07-21T02:26:02.121Z,15.45
2017-07-21T02:27:03.366Z,15.43
2017-07-21T02:28:04.608Z,15.45
2017-07-21T02:29:05.850Z,15.42
2017-07-21T02:30:07.089Z,15.42
2017-07-21T02:31:08.336Z,15.43
2017-07-21T02:32:09.574Z,15.46
2017-07-21T02:33:10.814Z,15.46
2017-07-21T02:34:12.052Z,15.52
2017-07-21T02:35:13.285Z,15.41
2017-07-21T02:36:14.590Z,15.42
2017-07-21T02:37:15.914Z,15.36
2017-07-21T02:38:17.150Z,15.39
2017-07-21T02:39:18.387Z,15.41
2017-07-21T02:40:19.620Z,15.41
2017-07-21T02:41:20.862Z,15.36
2017-07-21T02:42:22.099Z,15.41
2017-07-21T02:43:23.339Z,15.31
2017-07-21T02:44:24.605Z,15.33
2017-07-21T02:45:25.869Z,15.33
2017-07-21T02:46:27.090Z,15.43
2017-07-21T02:47:28.371Z,15.39
2017-07-21T02:48:29.604Z,15.27
2017-07-21T02:49:30.837Z,15.23
2017-07-21T02:50:32.170Z,15.23
2017-07-21T02:51:33.407Z,15.26
2017-07-21T02:52:34.679Z,15.19
2017-07-21T02:53:35.896Z,15.23
2017-07-21T02:54:37.133Z,15.23
2017-07-21T02:55:38.374Z,15.17
2017-07-21T02:56:39.638Z,15.2
2017-07-21T02:57:40.885Z,15.26
2017-07-21T02:58:42.256Z,15.2
2017-07-21T02:59:43.491Z,15.23
2017-07-21T03:00:44.734Z,15.2
2017-07-21T03:01:46.019Z,15.2
2017-07-21T03:02:47.251Z,15.12
2017-07-21T03:03:48.495Z,15.15
2017-07-21T03:04:49.745Z,15.09
2017-07-21T03:05:50.975Z,15.11
2017-07-21T03:06:52.216Z,15.12
2017-07-21T03:07:53.453Z,15.19
2017-07-21T03:08:54.684Z,15.15
2017-07-21T03:09:55.918Z,15.08
2017-07-21T03:10:57.161Z,15.11
2017-07-21T03:11:58.402Z,15.05
2017-07-21T03:12:59.632Z,15.05
2017-07-21T03:14:00.860Z,15.02
2017-07-21T03:15:02.178Z,15.03
2017-07-21T03:16:03.418Z,15.05
2017-07-21T03:17:04.669Z,15.05
2017-07-21T03:18:05.914Z,15.02
2017-07-21T03:19:07.144Z,15.09
2017-07-21T03:20:08.484Z,15.11
2017-07-21T03:21:09.731Z,15.08
2017-07-21T03:22:10.975Z,15.11
2017-07-21T03:23:12.213Z,14.99
2017-07-21T03:24:13.452Z,15.05
2017-07-21T03:25:14.681Z,15.06
2017-07-21T03:26:15.920Z,14.94
2017-07-21T03:27:17.176Z,15.06
2017-07-21T03:28:18.394Z,15.02
2017-07-21T03:29:19.747Z,15.03
2017-07-21T03:30:20.994Z,15.05
2017-07-21T03:31:22.227Z,15.05
2017-07-21T03:32:23.466Z,15.02
2017-07-21T03:33:24.700Z,15.02
2017-07-21T03:34:25.990Z,15.05
2017-07-21T03:35:27.229Z,15.05
2017-07-21T03:36:28.565Z,15.05
2017-07-21T03:37:29.801Z,15.05
2017-07-21T03:38:31.036Z,15.02
2017-07-21T03:39:32.265Z,14.98
2017-07-21T03:40:33.508Z,15.05
2017-07-21T03:41:34.773Z,15.05
2017-07-21T03:42:36.142Z,14.99
2017-07-21T03:43:37.361Z,15.08
2017-07-21T03:44:38.692Z,15.03
2017-07-21T03:45:39.929Z,15.12
2017-07-21T03:46:41.168Z,15.12
2017-07-21T03:47:42.516Z,15.05
2017-07-21T03:48:43.765Z,15.11
2017-07-21T03:49:44.994Z,15.12
2017-07-21T03:50:46.221Z,15.12
2017-07-21T03:51:47.452Z,15.19
2017-07-21T03:52:48.699Z,15.12
2017-07-21T03:53:49.930Z,15.13
2017-07-21T03:54:51.183Z,15.12
2017-07-21T03:55:52.438Z,15.17
2017-07-21T03:56:53.683Z,15.13
2017-07-21T03:57:54.922Z,15.11
2017-07-21T03:58:56.158Z,15.21
2017-07-21T03:59:57.398Z,15.24
2017-07-21T04:00:58.658Z,15.35
2017-07-21T04:02:00.014Z,15.3
2017-07-21T04:03:01.247Z,15.35
2017-07-21T04:04:02.504Z,15.33
2017-07-21T04:05:03.726Z,15.45
2017-07-21T04:06:04.964Z,15.36
2017-07-21T04:07:06.211Z,15.42
2017-07-21T04:08:07.451Z,15.41
2017-07-21T04:09:08.728Z,15.42
2017-07-21T04:10:09.949Z,15.43
2017-07-21T04:11:11.181Z,15.41
2017-07-21T04:12:12.507Z,15.46
2017-07-21T04:13:13.747Z,15.51
2017-07-21T04:14:14.985Z,15.54
2017-07-21T04:15:16.219Z,15.6
2017-07-21T04:16:17.565Z,15.63
2017-07-21T04:17:18.701Z,15.68
2017-07-21T04:18:19.954Z,15.74
2017-07-21T04:19:21.198Z,15.79
2017-07-21T04:20:22.460Z,15.79
2017-07-21T04:21:23.742Z,15.93
2017-07-21T04:22:25.044Z,15.96
2017-07-21T04:23:26.336Z,15.94
2017-07-21T04:24:27.585Z,15.97
2017-07-21T04:25:28.825Z,16.12
2017-07-21T04:26:30.063Z,16.09
2017-07-21T04:27:31.317Z,16.22
2017-07-21T04:28:32.539Z,16.22
2017-07-21T04:29:33.782Z,16.23
2017-07-21T04:30:35.028Z,16.35
2017-07-21T04:31:36.304Z,16.49
2017-07-21T04:32:37.539Z,16.52
2017-07-21T04:33:38.888Z,16.59
2017-07-21T04:34:40.169Z,16.58
2017-07-21T04:35:41.428Z,16.6
2017-07-21T04:36:42.661Z,16.5
2017-07-21T04:37:43.890Z,16.62
2017-07-21T04:38:45.143Z,16.56
2017-07-21T04:39:46.374Z,16.6
2017-07-21T04:40:47.659Z,16.6
2017-07-21T04:41:48.910Z,16.73
2017-07-21T04:42:50.151Z,16.74
2017-07-21T04:43:51.378Z,16.88
2017-07-21T04:44:52.621Z,16.83
2017-07-21T04:45:53.862Z,16.88
2017-07-21T04:46:55.107Z,16.9
2017-07-21T04:47:56.458Z,16.96
2017-07-21T04:48:57.694Z,17.03
2017-07-21T04:49:58.932Z,17
2017-07-21T04:51:00.173Z,16.95
2017-07-21T04:52:01.423Z,17
2017-07-21T04:53:02.698Z,17.08
2017-07-21T04:54:03.955Z,17.08
2017-07-21T04:55:05.188Z,17.1
2017-07-21T04:56:06.419Z,17.07
2017-07-21T04:57:07.666Z,17.06
2017-07-21T04:58:08.912Z,17.07
2017-07-21T04:59:10.154Z,17.07
2017-07-21T05:00:11.392Z,17.07
2017-07-21T05:01:12.632Z,17.04
2017-07-21T05:02:13.873Z,17.06
2017-07-21T05:03:15.110Z,17
2017-07-21T05:04:16.355Z,17.11
2017-07-21T05:05:17.592Z,17.22
2017-07-21T05:06:18.880Z,17.23
2017-07-21T05:07:20.163Z,17.28
2017-07-21T05:08:21.393Z,17.38
2017-07-21T05:09:22.608Z,17.51
2017-07-21T05:10:23.855Z,17.55
2017-07-21T05:11:25.090Z,17.74
2017-07-21T05:12:26.383Z,17.95
2017-07-21T05:13:27.642Z,18.1
2017-07-21T05:14:28.919Z,18.58
2017-07-21T05:15:30.255Z,18.97
2017-07-21T05:16:31.509Z,19.5
2017-07-21T05:17:32.732Z,20.03
2017-07-21T05:18:34.000Z,20.65
2017-07-21T05:19:35.258Z,21.06
2017-07-21T05:20:36.483Z,21.76
2017-07-21T05:21:37.726Z,22.34
2017-07-21T05:22:38.962Z,22.52
2017-07-21T05:23:40.226Z,23.04
2017-07-21T05:24:41.463Z,23.39
2017-07-21T05:25:42.732Z,23.72
2017-07-21T05:26:44.014Z,24.05
2017-07-21T05:27:45.239Z,24.34
2017-07-21T05:28:46.486Z,24.8
2017-07-21T05:29:47.734Z,25.15
2017-07-21T05:30:48.982Z,25.56
2017-07-21T05:31:50.221Z,25.8
2017-07-21T05:32:51.458Z,25.86
2017-07-21T05:33:52.704Z,26.02
2017-07-21T05:34:54.002Z,26.36
2017-07-21T05:35:55.248Z,26.54
2017-07-21T05:36:56.492Z,26.58
2017-07-21T05:37:57.735Z,26.73
2017-07-21T05:38:58.983Z,27.2
2017-07-21T05:40:00.275Z,27.43
2017-07-21T05:41:01.510Z,27.61
2017-07-21T05:42:02.795Z,27.84
2017-07-21T05:43:04.048Z,27.89
2017-07-21T05:44:05.288Z,28.04
2017-07-21T05:45:06.538Z,28.32
2017-07-21T05:46:07.781Z,28.68
2017-07-21T05:47:09.072Z,28.78
2017-07-21T05:48:10.313Z,28.87
2017-07-21T05:49:11.553Z,29.03
2017-07-21T05:50:12.803Z,29
2017-07-21T05:51:14.058Z,29.16
2017-07-21T05:52:15.309Z,29.22
2017-07-21T05:53:16.546Z,29.55
2017-07-21T05:54:17.837Z,29.66
2017-07-21T05:55:19.074Z,29.79
2017-07-21T05:56:20.323Z,29.93
2017-07-21T05:57:21.592Z,30.29
2017-07-21T05:58:22.841Z,30.53
2017-07-21T05:59:24.142Z,30.64
2017-07-21T06:00:25.377Z,30.78
2017-07-21T06:01:26.626Z,30.72
2017-07-21T06:02:27.883Z,30.78
2017-07-21T06:03:29.119Z,30.94
2017-07-21T06:04:30.368Z,30.99
2017-07-21T06:05:31.607Z,30.68
2017-07-21T06:06:32.846Z,30.27
2017-07-21T06:07:34.113Z,30.26
2017-07-21T06:08:35.390Z,30.47
2017-07-21T06:09:36.633Z,30.37
2017-07-21T06:10:37.871Z,30.15
2017-07-21T06:11:39.122Z,30.05
2017-07-21T06:12:40.368Z,30.38
2017-07-21T06:13:41.611Z,30.5
2017-07-21T06:14:42.858Z,30.71
2017-07-21T06:15:44.103Z,30.93
2017-07-21T06:16:45.348Z,31.28
2017-07-21T06:17:46.631Z,31.65
2017-07-21T06:18:47.942Z,31.38
2017-07-21T06:19:49.189Z,31.82
2017-07-21T06:20:50.482Z,32.36
2017-07-21T06:21:51.727Z,32.43
2017-07-21T06:22:52.972Z,32.47
2017-07-21T06:23:54.213Z,32.42
2017-07-21T06:24:55.452Z,32.42
2017-07-21T06:25:56.721Z,32.86
2017-07-21T06:26:57.960Z,33.23
2017-07-21T06:27:59.206Z,33.1
2017-07-21T06:29:00.453Z,33.3
2017-07-21T06:30:01.697Z,33.46
2017-07-21T06:31:02.976Z,33.43
2017-07-21T06:32:04.271Z,33.29
2017-07-21T06:33:05.518Z,33.46
2017-07-21T06:34:06.769Z,33.49
2017-07-21T06:35:08.020Z,33.19
2017-07-21T06:36:09.259Z,32.99
2017-07-21T06:37:10.515Z,32.62
2017-07-21T06:38:11.895Z,32.76
2017-07-21T06:39:13.214Z,32.49
2017-07-21T06:40:14.444Z,31.68
2017-07-21T06:41:15.715Z,31.75
2017-07-21T06:42:16.937Z,31.99
2017-07-21T06:43:18.299Z,32
2017-07-21T06:44:19.562Z,32.1
2017-07-21T06:45:20.862Z,32.44
2017-07-21T06:46:22.117Z,32.42
2017-07-21T06:47:23.373Z,32.76
2017-07-21T06:48:24.636Z,32.95
2017-07-21T06:49:25.904Z,33.06
2017-07-21T06:50:27.204Z,33.55
2017-07-21T06:51:28.465Z,33.65
2017-07-21T06:52:29.711Z,34.01
2017-07-21T06:53:30.960Z,34.44
2017-07-21T06:54:32.258Z,34.8
2017-07-21T06:55:33.508Z,35.1
2017-07-21T06:56:34.758Z,35.4
2017-07-21T06:57:36.106Z,35.33
2017-07-21T06:58:37.439Z,35.69
2017-07-21T06:59:38.667Z,35.81
2017-07-21T07:00:39.918Z,35.74
2017-07-21T07:01:41.167Z,35.85
2017-07-21T07:02:42.416Z,35.97
2017-07-21T07:03:43.679Z,36.01
2017-07-21T07:04:44.930Z,36.15
2017-07-21T07:05:46.177Z,36
2017-07-21T07:06:47.418Z,36.42
2017-07-21T07:07:48.754Z,36.85
2017-07-21T07:08:50.136Z,36.82
2017-07-21T07:09:51.391Z,37.2
2017-07-21T07:10:52.635Z,37.56
2017-07-21T07:11:53.881Z,37.86
2017-07-21T07:12:55.132Z,37.88
2017-07-21T07:13:56.451Z,37.83
2017-07-21T07:14:57.730Z,37.47
2017-07-21T07:15:58.978Z,37.62
2017-07-21T07:17:00.242Z,37.99
2017-07-21T07:18:01.487Z,38.15
2017-07-21T07:19:02.844Z,38.2
2017-07-21T07:20:04.085Z,38.14
2017-07-21T07:21:05.336Z,38.2
2017-07-21T07:22:06.623Z,38.53
2017-07-21T07:23:07.862Z,38.76
2017-07-21T07:24:09.109Z,38.85
2017-07-21T07:25:10.479Z,39.01
2017-07-21T07:26:11.819Z,38.8
2017-07-21T07:27:13.102Z,38.92
2017-07-21T07:28:14.411Z,39.1
2017-07-21T07:29:15.658Z,39.2
2017-07-21T07:30:16.902Z,39.17
2017-07-21T07:31:18.165Z,39.24
2017-07-21T07:32:19.413Z,39.4
2017-07-21T07:33:20.665Z,39.49
2017-07-21T07:34:21.924Z,39.74
2017-07-21T07:35:23.160Z,40.02
2017-07-21T07:36:24.480Z,40.15
2017-07-21T07:37:25.731Z,40.18
2017-07-21T07:38:26.982Z,40.64
2017-07-21T07:39:28.289Z,40.79
2017-07-21T07:40:29.536Z,40.8
2017-07-21T07:41:30.791Z,40.47
2017-07-21T07:42:32.046Z,40.08
2017-07-21T07:43:33.293Z,39.88
2017-07-21T07:44:34.620Z,39.99
2017-07-21T07:45:35.885Z,40.32
2017-07-21T07:46:37.142Z,40.79
2017-07-21T07:47:38.429Z,41.08
2017-07-21T07:48:39.690Z,41.09
2017-07-21T07:49:40.937Z,40.76
2017-07-21T07:50:42.216Z,40.36
2017-07-21T07:51:43.474Z,40.07
2017-07-21T07:52:44.726Z,39.18
2017-07-21T07:53:45.975Z,39.59
2017-07-21T07:54:47.220Z,39.96
2017-07-21T07:55:48.598Z,40.18
2017-07-21T07:56:49.837Z,40.4
2017-07-21T07:57:51.082Z,40.54
2017-07-21T07:58:52.410Z,40.38
2017-07-21T07:59:53.658Z,40.34
2017-07-21T08:00:54.914Z,39.69
2017-07-21T08:01:56.203Z,40.34
2017-07-21T08:02:57.475Z,40.86
2017-07-21T08:03:58.835Z,41.09
2017-07-21T08:05:00.104Z,41.44
2017-07-21T08:06:01.378Z,41.09
2017-07-21T08:07:02.633Z,40.49
2017-07-21T08:08:03.892Z,40.02
2017-07-21T08:09:05.144Z,40.04
2017-07-21T08:10:06.399Z,40.02
2017-07-21T08:11:07.832Z,40.19
2017-07-21T08:12:08.972Z,40.46
2017-07-21T08:13:10.236Z,40.62
2017-07-21T08:14:11.492Z,40.88
2017-07-21T08:15:12.747Z,41.21
2017-07-21T08:16:14.068Z,41.52
2017-07-21T08:17:15.304Z,41.71
2017-07-21T08:18:16.602Z,41.96
2017-07-21T08:19:17.859Z,41.96
2017-07-21T08:20:19.118Z,41.96
2017-07-21T08:21:20.415Z,41.98
2017-07-21T08:22:21.668Z,42.54
2017-07-21T08:23:22.949Z,42.75
2017-07-21T08:24:24.230Z,42.81
2017-07-21T08:25:25.459Z,43.34
2017-07-21T08:26:26.736Z,43.67
2017-07-21T08:27:28.095Z,43.25
2017-07-21T08:28:29.349Z,42.97
2017-07-21T08:29:30.602Z,41.98
2017-07-21T08:30:31.858Z,40.64
2017-07-21T08:31:33.108Z,40.05
2017-07-21T08:32:34.396Z,40.3
2017-07-21T08:33:35.655Z,40.3
2017-07-21T08:34:36.908Z,40.99
2017-07-21T08:35:38.163Z,41.22
2017-07-21T08:36:39.433Z,41.29
2017-07-21T08:37:40.680Z,41.68
2017-07-21T08:38:41.936Z,41.59
2017-07-21T08:39:43.191Z,41.94
2017-07-21T08:40:44.501Z,42.41
2017-07-21T08:41:45.785Z,42.76
2017-07-21T08:42:47.044Z,43
2017-07-21T08:43:48.294Z,42.75
2017-07-21T08:44:49.545Z,42.56
2017-07-21T08:45:50.824Z,43.02
2017-07-21T08:46:52.204Z,42.92
2017-07-21T08:47:53.465Z,43.1
2017-07-21T08:48:54.709Z,42.99
2017-07-21T08:49:55.957Z,42.46
2017-07-21T08:50:57.213Z,41.39
2017-07-21T08:51:58.484Z,40.47
2017-07-21T08:52:59.824Z,40.76
2017-07-21T08:54:01.096Z,40.96
2017-07-21T08:55:02.353Z,41.08
2017-07-21T08:56:03.594Z,41.12
2017-07-21T08:57:04.936Z,40.34
2017-07-21T08:58:06.185Z,40.47
2017-07-21T08:59:07.451Z,40.68
2017-07-21T09:00:08.700Z,40.87
2017-07-21T09:01:09.959Z,40.54
2017-07-21T09:02:11.228Z,39.44
2017-07-21T09:03:12.481Z,39.4
2017-07-21T09:04:13.734Z,39.64
2017-07-21T09:05:14.993Z,39.65
2017-07-21T09:06:16.411Z,40.15
2017-07-21T09:07:17.658Z,40.81
2017-07-21T09:08:18.936Z,41.52
2017-07-21T09:09:20.201Z,42.01
2017-07-21T09:10:21.434Z,42.47
2017-07-21T09:11:22.799Z,42.68
2017-07-21T09:12:24.041Z,40.05
2017-07-21T09:13:25.289Z,39.65
2017-07-21T09:14:26.548Z,39.46
2017-07-21T09:15:27.801Z,39.47
2017-07-21T09:16:29.128Z,39.81
2017-07-21T09:17:30.383Z,40.1
2017-07-21T09:18:31.667Z,40.57
2017-07-21T09:19:32.950Z,40.99
2017-07-21T09:20:34.185Z,41.4
2017-07-21T09:21:35.445Z,41.86
2017-07-21T09:22:36.702Z,42.41
2017-07-21T09:23:38.100Z,43.02
2017-07-21T09:24:39.324Z,43.53
2017-07-21T09:25:40.566Z,43.92
2017-07-21T09:26:41.829Z,43.85
2017-07-21T09:27:43.308Z,43.82
2017-07-21T09:28:44.556Z,44.02
2017-07-21T09:29:45.906Z,44.54
2017-07-21T09:30:47.155Z,44.04
2017-07-21T09:31:48.408Z,44.35
2017-07-21T09:32:49.667Z,44.54
2017-07-21T09:33:51.004Z,44.57
2017-07-21T09:34:52.307Z,44.47
2017-07-21T09:35:53.591Z,44.18
2017-07-21T09:36:54.821Z,43.94
2017-07-21T09:37:56.078Z,43.83
2017-07-21T09:38:57.341Z,42.99
2017-07-21T09:39:58.601Z,43.16
2017-07-21T09:40:59.906Z,43.38
2017-07-21T09:42:01.162Z,41.7
2017-07-21T09:43:02.428Z,41.83
2017-07-21T09:44:03.685Z,42.15
2017-07-21T09:45:04.969Z,42.73
2017-07-21T09:46:06.289Z,42.87
2017-07-21T09:47:07.541Z,42.79
2017-07-21T09:48:08.814Z,43.22
2017-07-21T09:49:10.072Z,43.68
2017-07-21T09:50:11.334Z,43.57
2017-07-21T09:51:12.594Z,43.44
2017-07-21T09:52:13.866Z,43.46
2017-07-21T09:53:15.117Z,43.02
2017-07-21T09:54:16.387Z,41.77
2017-07-21T09:55:17.696Z,41.85
2017-07-21T09:56:18.947Z,42.09
2017-07-21T09:57:20.210Z,42.53
2017-07-21T09:58:21.449Z,42.57
2017-07-21T09:59:22.700Z,42.9
2017-07-21T10:00:24.024Z,41.86
2017-07-21T10:01:25.232Z,41.46
2017-07-21T10:02:26.480Z,41.94
2017-07-21T10:03:27.740Z,42.16
2017-07-21T10:04:29.010Z,41.66
2017-07-21T10:05:30.340Z,41.62
2017-07-21T10:06:31.597Z,41.4
2017-07-21T10:07:32.894Z,40.75
2017-07-21T10:08:34.154Z,40.93
2017-07-21T10:09:35.416Z,40.9
2017-07-21T10:10:36.746Z,41.27
2017-07-21T10:11:38.008Z,41.86
2017-07-21T10:12:39.271Z,42.32
2017-07-21T10:13:40.581Z,42.38
2017-07-21T10:14:41.847Z,42.6
2017-07-21T10:15:43.099Z,43.07
2017-07-21T10:16:44.372Z,43.56
2017-07-21T10:17:45.626Z,43.67
2017-07-21T10:18:46.974Z,43.45
2017-07-21T10:19:48.233Z,43.42
2017-07-21T10:20:49.493Z,43.18
2017-07-21T10:21:50.768Z,42.73
2017-07-21T10:22:52.125Z,42.5
2017-07-21T10:23:53.377Z,42.22
2017-07-21T10:24:54.667Z,42.63
2017-07-21T10:25:55.948Z,43
2017-07-21T10:26:57.189Z,43.39
2017-07-21T10:27:58.517Z,43.79
2017-07-21T10:28:59.803Z,43.48
2017-07-21T10:30:01.063Z,42.85
2017-07-21T10:31:02.385Z,42.22
2017-07-21T10:32:03.648Z,42.25
2017-07-21T10:33:04.907Z,42.68
2017-07-21T10:34:06.171Z,42.84
2017-07-21T10:35:07.510Z,43.13
2017-07-21T10:36:08.800Z,42.97
2017-07-21T10:37:10.038Z,42.79
2017-07-21T10:38:11.300Z,42.92
2017-07-21T10:39:12.636Z,43.04
2017-07-21T10:40:13.932Z,42.68
2017-07-21T10:41:15.188Z,42.09
2017-07-21T10:42:16.537Z,41.5
2017-07-21T10:43:17.800Z,40.69
2017-07-21T10:44:19.061Z,39.58
2017-07-21T10:45:20.384Z,38.64
2017-07-21T10:46:21.651Z,38.17
2017-07-21T10:47:22.897Z,37.56
2017-07-21T10:48:24.147Z,37.26
2017-07-21T10:49:25.420Z,36.75
2017-07-21T10:50:26.830Z,36.83
2017-07-21T10:51:28.081Z,36.58
2017-07-21T10:52:29.366Z,36
2017-07-21T10:53:30.624Z,35.2
2017-07-21T10:54:31.873Z,34.57
2017-07-21T10:55:33.149Z,34.16
2017-07-21T10:56:34.368Z,34
2017-07-21T10:57:35.621Z,33.74
2017-07-21T10:58:36.974Z,33.46
2017-07-21T10:59:38.244Z,33.17
2017-07-21T11:00:39.498Z,32.71
2017-07-21T11:01:40.768Z,32.14
2017-07-21T11:02:42.024Z,31.67
2017-07-21T11:03:43.268Z,31.28
2017-07-21T11:04:44.615Z,30.53
2017-07-21T11:05:45.869Z,30.24
2017-07-21T11:06:47.124Z,29.97
2017-07-21T11:07:48.362Z,29.68
2017-07-21T11:08:49.606Z,29.33
2017-07-21T11:09:50.865Z,29.16
2017-07-21T11:10:52.241Z,28.85
2017-07-21T11:11:53.507Z,28.62
2017-07-21T11:12:54.777Z,28.4
2017-07-21T11:13:56.003Z,28.35
2017-07-21T11:14:57.258Z,28.21
2017-07-21T11:15:58.503Z,28.04
2017-07-21T11:16:59.750Z,28.07
2017-07-21T11:18:01.022Z,27.96
2017-07-21T11:19:02.373Z,27.95
2017-07-21T11:20:03.623Z,27.84
2017-07-21T11:21:04.874Z,27.8
2017-07-21T11:22:06.116Z,27.77
2017-07-21T11:23:07.368Z,27.77
2017-07-21T11:24:08.627Z,27.77
2017-07-21T11:25:09.957Z,27.79
2017-07-21T11:26:11.185Z,27.88
2017-07-21T11:27:12.442Z,27.74
2017-07-21T11:28:13.689Z,27.77
2017-07-21T11:29:14.936Z,27.85
2017-07-21T11:30:16.201Z,27.82
2017-07-21T11:31:17.473Z,27.74
2017-07-21T11:32:18.784Z,27.67
2017-07-21T11:33:20.043Z,27.48
2017-07-21T11:34:21.302Z,27.57
2017-07-21T11:35:22.567Z,27.43
2017-07-21T11:36:23.811Z,27.26
2017-07-21T11:37:25.067Z,27.19
2017-07-21T11:38:26.317Z,27.24
2017-07-21T11:39:27.567Z,27.24
2017-07-21T11:40:28.808Z,27.32
2017-07-21T11:41:30.056Z,27.28
2017-07-21T11:42:31.404Z,27.24
2017-07-21T11:43:32.661Z,27.17
2017-07-21T11:44:33.915Z,27.16
2017-07-21T11:45:35.167Z,27.16
2017-07-21T11:46:36.416Z,27.05
2017-07-21T11:47:37.657Z,27.02
2017-07-21T11:48:38.928Z,27.05
2017-07-21T11:49:40.265Z,27.02
2017-07-21T11:50:41.462Z,26.99
2017-07-21T11:51:42.709Z,26.94
2017-07-21T11:52:43.947Z,26.94
2017-07-21T11:53:45.218Z,26.74
2017-07-21T11:54:46.512Z,26.62
2017-07-21T11:55:47.747Z,26.44
2017-07-21T11:56:48.998Z,26.21
2017-07-21T11:57:50.243Z,25.86
2017-07-21T11:58:51.484Z,25.83
2017-07-21T11:59:52.796Z,25.67
2017-07-21T12:00:54.072Z,25.57
2017-07-21T12:01:55.370Z,25.57
2017-07-21T12:02:56.624Z,25.59
2017-07-21T12:03:57.875Z,25.44
2017-07-21T12:04:59.126Z,25.43
2017-07-21T12:06:00.474Z,25.5
2017-07-21T12:07:01.726Z,25.35
2017-07-21T12:08:02.969Z,25.02
2017-07-21T12:09:04.214Z,24.97
2017-07-21T12:10:05.451Z,24.83
2017-07-21T12:11:06.690Z,24.83
2017-07-21T12:12:07.935Z,24.69
2017-07-21T12:13:09.303Z,24.68
2017-07-21T12:14:10.555Z,24.57
2017-07-21T12:15:11.809Z,24.56
2017-07-21T12:16:13.034Z,24.75
2017-07-21T12:17:14.278Z,24.75
2017-07-21T12:18:15.512Z,24.95
2017-07-21T12:19:16.759Z,24.97
2017-07-21T12:20:18.078Z,25.2
2017-07-21T12:21:19.377Z,25.15
2017-07-21T12:22:20.648Z,25.01
2017-07-21T12:23:21.892Z,24.92
2017-07-21T12:24:23.134Z,24.9
2017-07-21T12:25:24.471Z,24.85
2017-07-21T12:26:25.706Z,24.71
2017-07-21T12:27:26.947Z,24.63
2017-07-21T12:28:28.233Z,24.56
2017-07-21T12:29:29.471Z,24.63
2017-07-21T12:30:30.718Z,24.68
2017-07-21T12:31:31.996Z,24.6
2017-07-21T12:32:33.265Z,24.63
2017-07-21T12:33:34.522Z,24.85
2017-07-21T12:34:35.765Z,24.77
2017-07-21T12:35:37.013Z,24.77
2017-07-21T12:36:38.254Z,24.76
2017-07-21T12:37:39.512Z,24.75
2017-07-21T12:38:40.802Z,24.87
2017-07-21T12:39:42.049Z,24.95
2017-07-21T12:40:43.359Z,25.02
2017-07-21T12:41:44.727Z,24.98
2017-07-21T12:42:45.966Z,25.06
2017-07-21T12:43:47.199Z,25.05
2017-07-21T12:44:48.439Z,25.07
2017-07-21T12:45:49.679Z,25.1
2017-07-21T12:46:50.913Z,25.09
2017-07-21T12:47:52.153Z,25.17
2017-07-21T12:48:53.401Z,25.22
2017-07-21T12:49:54.702Z,25.15
2017-07-21T12:50:55.947Z,25.09
2017-07-21T12:51:57.201Z,25.01
2017-07-21T12:52:58.482Z,24.97
2017-07-21T12:53:59.729Z,24.92
2017-07-21T12:55:00.974Z,24.97
2017-07-21T12:56:02.215Z,25.02
2017-07-21T12:57:03.476Z,25.13
2017-07-21T12:58:04.712Z,24.98
2017-07-21T12:59:05.967Z,25.01
2017-07-21T13:00:07.210Z,24.98
2017-07-21T13:01:08.539Z,25.05
2017-07-21T13:02:09.782Z,25.02
2017-07-21T13:03:11.030Z,25
2017-07-21T13:04:12.288Z,25.05
2017-07-21T13:05:13.529Z,25.07
2017-07-21T13:06:14.777Z,25.09
2017-07-21T13:07:16.039Z,25.02
2017-07-21T13:08:17.271Z,24.98
2017-07-21T13:09:18.566Z,25.12
2017-07-21T13:10:19.808Z,25.09
2017-07-21T13:11:21.033Z,25.13
2017-07-21T13:12:22.360Z,25.2